sensor_id;sensor_type;location;lat;lon;timestamp;pressure;altitude;pressure_sealevel;temperature;humidity
15884;BME280;8040;50.254;10.960;2023-03-16T00:00:26;98761.72;;;2.47;80.38
15884;BME280;8040;50.254;10.960;2023-03-16T00:02:52;98771.38;;;2.48;80.49
15884;BME280;8040;50.254;10.960;2023-03-16T00:05:17;98773.56;;;2.51;80.98
15884;BME280;8040;50.254;10.960;2023-03-16T00:07:43;98775.44;;;2.51;80.62
15884;BME280;8040;50.254;10.960;2023-03-16T00:10:09;98773.22;;;2.59;80.58
15884;BME280;8040;50.254;10.960;2023-03-16T00:12:36;98782.88;;;2.60;79.72
15884;BME280;8040;50.254;10.960;2023-03-16T00:15:02;98776.69;;;2.60;79.78
15884;BME280;8040;50.254;10.960;2023-03-16T00:17:28;98770.66;;;2.53;79.09
15884;BME280;8040;50.254;10.960;2023-03-16T00:19:55;98773.59;;;2.28;79.37
15884;BME280;8040;50.254;10.960;2023-03-16T00:22:22;98771.88;;;2.22;79.69
15884;BME280;8040;50.254;10.960;2023-03-16T00:24:48;98770.47;;;2.08;80.19
15884;BME280;8040;50.254;10.960;2023-03-16T00:27:13;98763.34;;;2.02;80.77
15884;BME280;8040;50.254;10.960;2023-03-16T00:29:40;98760.47;;;1.92;80.75
15884;BME280;8040;50.254;10.960;2023-03-16T00:32:11;98765.19;;;1.67;81.95
15884;BME280;8040;50.254;10.960;2023-03-16T00:34:36;98767.75;;;1.85;82.55
15884;BME280;8040;50.254;10.960;2023-03-16T00:37:02;98756.13;;;1.91;82.50
15884;BME280;8040;50.254;10.960;2023-03-16T00:39:27;98761.63;;;1.96;82.13
15884;BME280;8040;50.254;10.960;2023-03-16T00:41:52;98760.81;;;1.96;81.89
15884;BME280;8040;50.254;10.960;2023-03-16T00:44:22;98766.25;;;1.89;82.63
15884;BME280;8040;50.254;10.960;2023-03-16T00:46:48;98763.59;;;2.01;82.94
15884;BME280;8040;50.254;10.960;2023-03-16T00:49:13;98761.63;;;2.19;83.26
15884;BME280;8040;50.254;10.960;2023-03-16T00:51:38;98758.94;;;2.31;83.27
15884;BME280;8040;50.254;10.960;2023-03-16T00:54:04;98767.91;;;2.36;82.89
15884;BME280;8040;50.254;10.960;2023-03-16T00:56:29;98767.66;;;2.38;82.10
15884;BME280;8040;50.254;10.960;2023-03-16T00:58:55;98763.13;;;2.38;81.84
15884;BME280;8040;50.254;10.960;2023-03-16T01:01:22;98761.94;;;2.46;81.88
15884;BME280;8040;50.254;10.960;2023-03-16T01:03:48;98770.78;;;2.46;81.03
15884;BME280;8040;50.254;10.960;2023-03-16T01:06:15;98766.03;;;2.37;80.87
15884;BME280;8040;50.254;10.960;2023-03-16T01:08:41;98774.06;;;2.48;81.17
15884;BME280;8040;50.254;10.960;2023-03-16T01:11:09;98763.13;;;2.50;81.00
15884;BME280;8040;50.254;10.960;2023-03-16T01:13:34;98769.28;;;2.39;80.51
15884;BME280;8040;50.254;10.960;2023-03-16T01:16:00;98765.09;;;2.31;80.58
15884;BME280;8040;50.254;10.960;2023-03-16T01:18:26;98766.41;;;2.17;80.63
15884;BME280;8040;50.254;10.960;2023-03-16T01:20:51;98762.09;;;2.16;80.89
15884;BME280;8040;50.254;10.960;2023-03-16T01:23:17;98754.41;;;2.08;81.53
15884;BME280;8040;50.254;10.960;2023-03-16T01:25:43;98755.78;;;1.88;82.03
15884;BME280;8040;50.254;10.960;2023-03-16T01:28:08;98749.03;;;1.85;82.46
15884;BME280;8040;50.254;10.960;2023-03-16T01:30:34;98756.00;;;1.63;82.58
15884;BME280;8040;50.254;10.960;2023-03-16T01:33:00;98746.53;;;1.38;84.10
15884;BME280;8040;50.254;10.960;2023-03-16T01:35:25;98749.50;;;1.18;85.02
15884;BME280;8040;50.254;10.960;2023-03-16T01:37:50;98754.91;;;1.41;85.11
15884;BME280;8040;50.254;10.960;2023-03-16T01:40:16;98757.63;;;1.53;85.14
15884;BME280;8040;50.254;10.960;2023-03-16T01:42:45;98751.09;;;1.60;84.87
15884;BME280;8040;50.254;10.960;2023-03-16T01:47:56;98741.84;;;1.86;84.27
15884;BME280;8040;50.254;10.960;2023-03-16T01:50:22;98736.84;;;1.89;83.17
15884;BME280;8040;50.254;10.960;2023-03-16T01:52:48;98745.13;;;1.99;83.14
15884;BME280;8040;50.254;10.960;2023-03-16T01:55:14;98745.13;;;1.99;82.52
15884;BME280;8040;50.254;10.960;2023-03-16T01:57:40;98742.19;;;2.01;81.72
15884;BME280;8040;50.254;10.960;2023-03-16T02:00:13;98752.88;;;2.01;81.88
15884;BME280;8040;50.254;10.960;2023-03-16T02:02:56;98756.84;;;2.10;81.71
15884;BME280;8040;50.254;10.960;2023-03-16T02:05:23;98748.59;;;2.11;81.99
15884;BME280;8040;50.254;10.960;2023-03-16T02:07:52;98747.41;;;2.19;82.08
15884;BME280;8040;50.254;10.960;2023-03-16T02:10:23;98752.88;;;2.24;81.11
15884;BME280;8040;50.254;10.960;2023-03-16T02:12:49;98748.25;;;2.19;80.77
15884;BME280;8040;50.254;10.960;2023-03-16T02:17:42;98753.69;;;2.13;79.59
15884;BME280;8040;50.254;10.960;2023-03-16T02:22:41;98742.09;;;2.07;79.62
15884;BME280;8040;50.254;10.960;2023-03-16T02:25:08;98748.81;;;2.10;79.96
15884;BME280;8040;50.254;10.960;2023-03-16T02:30:16;98746.63;;;2.18;80.27
15884;BME280;8040;50.254;10.960;2023-03-16T02:32:41;98746.13;;;2.21;79.62
15884;BME280;8040;50.254;10.960;2023-03-16T02:35:08;98739.28;;;2.25;79.24
15884;BME280;8040;50.254;10.960;2023-03-16T02:37:34;98737.06;;;2.11;78.67
15884;BME280;8040;50.254;10.960;2023-03-16T02:40:00;98738.38;;;1.97;78.84
15884;BME280;8040;50.254;10.960;2023-03-16T02:42:26;98730.84;;;1.41;79.88
15884;BME280;8040;50.254;10.960;2023-03-16T02:44:55;98733.28;;;1.31;81.43
15884;BME280;8040;50.254;10.960;2023-03-16T02:47:32;98731.25;;;1.15;82.21
15884;BME280;8040;50.254;10.960;2023-03-16T02:49:58;98729.44;;;1.39;82.99
15884;BME280;8040;50.254;10.960;2023-03-16T02:52:24;98726.56;;;1.52;83.04
15884;BME280;8040;50.254;10.960;2023-03-16T02:54:49;98732.06;;;1.68;82.82
15884;BME280;8040;50.254;10.960;2023-03-16T02:57:15;98727.88;;;1.72;82.21
15884;BME280;8040;50.254;10.960;2023-03-16T02:59:40;98732.19;;;1.85;81.71
15884;BME280;8040;50.254;10.960;2023-03-16T03:02:05;98730.22;;;1.80;82.23
15884;BME280;8040;50.254;10.960;2023-03-16T03:04:31;98734.97;;;2.01;81.55
15884;BME280;8040;50.254;10.960;2023-03-16T03:06:57;98735.56;;;2.03;81.11
15884;BME280;8040;50.254;10.960;2023-03-16T03:09:28;98749.06;;;2.08;80.96
15884;BME280;8040;50.254;10.960;2023-03-16T03:11:53;98750.44;;;2.11;80.39
15884;BME280;8040;50.254;10.960;2023-03-16T03:14:18;98741.03;;;2.08;79.86
15884;BME280;8040;50.254;10.960;2023-03-16T03:16:43;98744.19;;;2.05;79.52
15884;BME280;8040;50.254;10.960;2023-03-16T03:19:11;98752.53;;;1.97;78.99
15884;BME280;8040;50.254;10.960;2023-03-16T03:21:36;98748.84;;;1.98;78.72
15884;BME280;8040;50.254;10.960;2023-03-16T03:24:02;98750.13;;;1.96;78.82
15884;BME280;8040;50.254;10.960;2023-03-16T03:26:28;98741.38;;;2.00;79.39
15884;BME280;8040;50.254;10.960;2023-03-16T03:28:53;98750.34;;;1.94;78.87
15884;BME280;8040;50.254;10.960;2023-03-16T03:31:20;98742.19;;;2.01;79.02
15884;BME280;8040;50.254;10.960;2023-03-16T03:33:45;98740.56;;;2.00;78.67
15884;BME280;8040;50.254;10.960;2023-03-16T03:36:11;98734.31;;;1.83;78.27
15884;BME280;8040;50.254;10.960;2023-03-16T03:38:36;98730.81;;;1.71;78.57
15884;BME280;8040;50.254;10.960;2023-03-16T03:41:02;98744.84;;;1.66;78.94
15884;BME280;8040;50.254;10.960;2023-03-16T03:43:28;98735.41;;;1.64;79.07
15884;BME280;8040;50.254;10.960;2023-03-16T03:45:54;98735.31;;;1.70;79.55
15884;BME280;8040;50.254;10.960;2023-03-16T03:48:19;98730.31;;;1.74;80.09
15884;BME280;8040;50.254;10.960;2023-03-16T03:50:45;98727.53;;;1.69;79.75
15884;BME280;8040;50.254;10.960;2023-03-16T03:53:10;98735.88;;;1.61;79.56
15884;BME280;8040;50.254;10.960;2023-03-16T03:55:35;98733.09;;;1.67;80.07
15884;BME280;8040;50.254;10.960;2023-03-16T03:58:01;98727.44;;;1.75;80.29
15884;BME280;8040;50.254;10.960;2023-03-16T04:00:26;98734.28;;;1.71;80.14
15884;BME280;8040;50.254;10.960;2023-03-16T04:02:51;98737.50;;;1.50;79.79
15884;BME280;8040;50.254;10.960;2023-03-16T04:05:17;98728.72;;;1.20;80.48
15884;BME280;8040;50.254;10.960;2023-03-16T04:10:17;98730.28;;;1.39;81.26
15884;BME280;8040;50.254;10.960;2023-03-16T04:12:43;98726.22;;;1.48;80.74
15884;BME280;8040;50.254;10.960;2023-03-16T04:15:08;98728.09;;;1.59;80.90
15884;BME280;8040;50.254;10.960;2023-03-16T04:17:35;98726.00;;;1.61;80.88
15884;BME280;8040;50.254;10.960;2023-03-16T04:20:00;98720.91;;;1.71;81.47
15884;BME280;8040;50.254;10.960;2023-03-16T04:22:26;98720.94;;;1.83;81.19
15884;BME280;8040;50.254;10.960;2023-03-16T04:24:54;98726.38;;;1.88;80.04
15884;BME280;8040;50.254;10.960;2023-03-16T04:27:19;98722.19;;;1.92;79.99
15884;BME280;8040;50.254;10.960;2023-03-16T04:29:45;98721.16;;;2.04;79.63
15884;BME280;8040;50.254;10.960;2023-03-16T04:32:10;98721.16;;;2.04;79.48
15884;BME280;8040;50.254;10.960;2023-03-16T04:34:35;98725.47;;;2.05;78.92
15884;BME280;8040;50.254;10.960;2023-03-16T04:37:02;98706.84;;;2.10;79.15
15884;BME280;8040;50.254;10.960;2023-03-16T04:39:27;98711.59;;;2.08;78.78
15884;BME280;8040;50.254;10.960;2023-03-16T04:41:53;98716.00;;;2.14;78.25
15884;BME280;8040;50.254;10.960;2023-03-16T04:44:18;98711.34;;;2.21;78.19
15884;BME280;8040;50.254;10.960;2023-03-16T04:46:43;98699.38;;;2.24;77.99
15884;BME280;8040;50.254;10.960;2023-03-16T04:49:09;98706.94;;;2.15;77.07
15884;BME280;8040;50.254;10.960;2023-03-16T04:51:37;98712.66;;;2.07;76.72
15884;BME280;8040;50.254;10.960;2023-03-16T04:54:04;98708.34;;;1.83;76.62
15884;BME280;8040;50.254;10.960;2023-03-16T04:56:30;98713.44;;;1.50;77.14
15884;BME280;8040;50.254;10.960;2023-03-16T04:58:55;98700.44;;;1.65;78.76
15884;BME280;8040;50.254;10.960;2023-03-16T05:01:24;98703.13;;;1.77;78.74
15884;BME280;8040;50.254;10.960;2023-03-16T05:03:49;98699.06;;;1.74;77.99
15884;BME280;8040;50.254;10.960;2023-03-16T05:06:14;98711.25;;;1.82;78.20
15884;BME280;8040;50.254;10.960;2023-03-16T05:08:40;98701.94;;;1.84;78.01
15884;BME280;8040;50.254;10.960;2023-03-16T05:11:05;98703.59;;;1.74;77.40
15884;BME280;8040;50.254;10.960;2023-03-16T05:13:30;98707.50;;;1.48;77.33
15884;BME280;8040;50.254;10.960;2023-03-16T05:15:56;98709.09;;;1.26;78.37
15884;BME280;8040;50.254;10.960;2023-03-16T05:18:21;98702.97;;;1.37;79.11
15884;BME280;8040;50.254;10.960;2023-03-16T05:20:53;98705.44;;;1.50;79.39
15884;BME280;8040;50.254;10.960;2023-03-16T05:23:20;98702.38;;;1.35;78.57
15884;BME280;8040;50.254;10.960;2023-03-16T05:25:48;98701.28;;;1.13;79.42
15884;BME280;8040;50.254;10.960;2023-03-16T05:28:14;98713.63;;;1.26;80.21
15884;BME280;8040;50.254;10.960;2023-03-16T05:30:40;98720.16;;;1.41;80.99
15884;BME280;8040;50.254;10.960;2023-03-16T05:33:06;98716.13;;;1.50;80.36
15884;BME280;8040;50.254;10.960;2023-03-16T05:35:32;98725.56;;;1.64;80.20
15884;BME280;8040;50.254;10.960;2023-03-16T05:37:57;98723.47;;;1.78;79.86
15884;BME280;8040;50.254;10.960;2023-03-16T05:40:23;98722.22;;;1.80;79.03
15884;BME280;8040;50.254;10.960;2023-03-16T05:42:52;98714.28;;;1.85;78.19
15884;BME280;8040;50.254;10.960;2023-03-16T05:45:18;98717.31;;;1.89;78.34
15884;BME280;8040;50.254;10.960;2023-03-16T05:47:43;98716.84;;;1.92;78.41
15884;BME280;8040;50.254;10.960;2023-03-16T05:50:09;98711.28;;;1.93;78.68
15884;BME280;8040;50.254;10.960;2023-03-16T05:52:35;98711.25;;;1.70;77.14
15884;BME280;8040;50.254;10.960;2023-03-16T05:55:01;98711.38;;;1.75;77.55
15884;BME280;8040;50.254;10.960;2023-03-16T05:57:26;98709.16;;;1.72;77.72
15884;BME280;8040;50.254;10.960;2023-03-16T05:59:51;98713.09;;;1.58;78.14
15884;BME280;8040;50.254;10.960;2023-03-16T06:02:17;98713.09;;;1.47;78.07
15884;BME280;8040;50.254;10.960;2023-03-16T06:04:42;98711.00;;;1.60;79.02
15884;BME280;8040;50.254;10.960;2023-03-16T06:07:08;98719.38;;;1.64;79.18
15884;BME280;8040;50.254;10.960;2023-03-16T06:09:33;98714.16;;;1.69;78.89
15884;BME280;8040;50.254;10.960;2023-03-16T06:11:58;98721.72;;;1.72;78.87
15884;BME280;8040;50.254;10.960;2023-03-16T06:14:24;98720.06;;;1.48;78.34
15884;BME280;8040;50.254;10.960;2023-03-16T06:16:49;98725.41;;;1.48;79.00
15884;BME280;8040;50.254;10.960;2023-03-16T06:19:15;98728.91;;;1.60;79.09
15884;BME280;8040;50.254;10.960;2023-03-16T06:21:40;98734.72;;;1.45;78.91
15884;BME280;8040;50.254;10.960;2023-03-16T06:24:05;98732.69;;;1.29;78.85
15884;BME280;8040;50.254;10.960;2023-03-16T06:26:33;98737.03;;;1.12;79.93
15884;BME280;8040;50.254;10.960;2023-03-16T06:28:58;98734.13;;;1.02;80.66
15884;BME280;8040;50.254;10.960;2023-03-16T06:31:24;98733.69;;;0.87;81.34
15884;BME280;8040;50.254;10.960;2023-03-16T06:33:53;98735.41;;;1.11;82.11
15884;BME280;8040;50.254;10.960;2023-03-16T06:36:18;98740.84;;;1.34;82.76
15884;BME280;8040;50.254;10.960;2023-03-16T06:38:43;98743.34;;;1.59;82.97
15884;BME280;8040;50.254;10.960;2023-03-16T06:41:09;98746.38;;;1.74;81.62
15884;BME280;8040;50.254;10.960;2023-03-16T06:43:34;98742.41;;;1.88;80.93
15884;BME280;8040;50.254;10.960;2023-03-16T06:45:59;98742.31;;;1.94;80.20
15884;BME280;8040;50.254;10.960;2023-03-16T06:48:25;98734.41;;;1.99;79.66
15884;BME280;8040;50.254;10.960;2023-03-16T06:50:50;98746.03;;;2.16;79.49
15884;BME280;8040;50.254;10.960;2023-03-16T06:53:16;98752.19;;;2.28;79.77
15884;BME280;8040;50.254;10.960;2023-03-16T06:55:41;98745.31;;;2.09;77.06
15884;BME280;8040;50.254;10.960;2023-03-16T06:58:06;98733.34;;;2.00;77.19
15884;BME280;8040;50.254;10.960;2023-03-16T07:00:32;98743.25;;;1.88;77.13
15884;BME280;8040;50.254;10.960;2023-03-16T07:02:58;98740.00;;;1.86;77.68
15884;BME280;8040;50.254;10.960;2023-03-16T07:05:23;98744.25;;;1.76;77.63
15884;BME280;8040;50.254;10.960;2023-03-16T07:07:49;98744.25;;;1.76;78.04
15884;BME280;8040;50.254;10.960;2023-03-16T07:10:15;98747.44;;;2.07;78.93
15884;BME280;8040;50.254;10.960;2023-03-16T07:12:41;98741.47;;;2.28;79.04
15884;BME280;8040;50.254;10.960;2023-03-16T07:15:07;98739.13;;;2.43;78.56
15884;BME280;8040;50.254;10.960;2023-03-16T07:17:32;98737.59;;;2.59;77.61
15884;BME280;8040;50.254;10.960;2023-03-16T07:19:58;98741.78;;;2.66;76.44
15884;BME280;8040;50.254;10.960;2023-03-16T07:22:23;98749.81;;;2.55;75.09
15884;BME280;8040;50.254;10.960;2023-03-16T07:24:48;98736.66;;;2.65;75.96
15884;BME280;8040;50.254;10.960;2023-03-16T07:27:21;98747.88;;;2.39;74.08
15884;BME280;8040;50.254;10.960;2023-03-16T07:29:47;98749.03;;;2.31;74.87
15884;BME280;8040;50.254;10.960;2023-03-16T07:32:13;98755.09;;;2.38;75.76
15884;BME280;8040;50.254;10.960;2023-03-16T07:34:38;98760.44;;;2.50;75.12
15884;BME280;8040;50.254;10.960;2023-03-16T07:37:03;98760.81;;;2.30;73.69
15884;BME280;8040;50.254;10.960;2023-03-16T07:39:29;98760.13;;;2.23;74.36
15884;BME280;8040;50.254;10.960;2023-03-16T07:41:55;98747.66;;;2.17;74.58
15884;BME280;8040;50.254;10.960;2023-03-16T07:44:21;98761.94;;;2.34;76.18
15884;BME280;8040;50.254;10.960;2023-03-16T07:46:46;98767.38;;;2.62;76.91
15884;BME280;8040;50.254;10.960;2023-03-16T07:49:11;98759.75;;;2.82;75.67
15884;BME280;8040;50.254;10.960;2023-03-16T07:51:37;98757.97;;;2.99;74.58
15884;BME280;8040;50.254;10.960;2023-03-16T07:54:02;98773.31;;;3.04;73.15
15884;BME280;8040;50.254;10.960;2023-03-16T07:56:28;98768.31;;;2.56;71.36
15884;BME280;8040;50.254;10.960;2023-03-16T07:58:53;98763.59;;;2.12;72.73
15884;BME280;8040;50.254;10.960;2023-03-16T08:01:19;98766.72;;;2.32;74.17
15884;BME280;8040;50.254;10.960;2023-03-16T08:03:44;98765.34;;;2.41;74.63
15884;BME280;8040;50.254;10.960;2023-03-16T08:06:09;98756.41;;;2.75;75.88
15884;BME280;8040;50.254;10.960;2023-03-16T08:08:36;98755.56;;;2.86;73.74
15884;BME280;8040;50.254;10.960;2023-03-16T08:11:02;98755.84;;;2.62;72.92
15884;BME280;8040;50.254;10.960;2023-03-16T08:13:27;98762.28;;;2.49;73.19
15884;BME280;8040;50.254;10.960;2023-03-16T08:15:54;98762.84;;;2.51;73.32
15884;BME280;8040;50.254;10.960;2023-03-16T08:18:23;98766.00;;;2.60;74.01
15884;BME280;8040;50.254;10.960;2023-03-16T08:20:49;98764.75;;;2.90;74.13
15884;BME280;8040;50.254;10.960;2023-03-16T08:23:14;98764.94;;;3.00;73.06
15884;BME280;8040;50.254;10.960;2023-03-16T08:25:40;98759.53;;;3.40;74.14
15884;BME280;8040;50.254;10.960;2023-03-16T08:28:05;98765.50;;;3.75;73.01
15884;BME280;8040;50.254;10.960;2023-03-16T08:30:33;98768.69;;;4.05;72.22
15884;BME280;8040;50.254;10.960;2023-03-16T08:32:59;98770.78;;;4.19;70.00
15884;BME280;8040;50.254;10.960;2023-03-16T08:35:25;98765.81;;;4.28;69.29
15884;BME280;8040;50.254;10.960;2023-03-16T08:37:53;98768.81;;;4.31;68.85
15884;BME280;8040;50.254;10.960;2023-03-16T08:40:18;98771.19;;;4.28;68.48
15884;BME280;8040;50.254;10.960;2023-03-16T08:42:46;98774.53;;;4.18;68.50
15884;BME280;8040;50.254;10.960;2023-03-16T08:45:14;98774.06;;;4.05;68.06
15884;BME280;8040;50.254;10.960;2023-03-16T08:47:41;98772.03;;;3.95;68.55
15884;BME280;8040;50.254;10.960;2023-03-16T08:50:07;98771.69;;;3.75;68.38
15884;BME280;8040;50.254;10.960;2023-03-16T08:52:33;98763.25;;;3.67;68.66
15884;BME280;8040;50.254;10.960;2023-03-16T08:55:00;98764.63;;;3.69;70.45
15884;BME280;8040;50.254;10.960;2023-03-16T08:57:26;98766.78;;;3.39;68.87
15884;BME280;8040;50.254;10.960;2023-03-16T08:59:52;98762.22;;;3.40;69.82
15884;BME280;8040;50.254;10.960;2023-03-16T09:02:17;98756.16;;;3.44;71.33
15884;BME280;8040;50.254;10.960;2023-03-16T09:04:42;98759.78;;;3.10;70.36
15884;BME280;8040;50.254;10.960;2023-03-16T09:07:08;98760.25;;;3.07;71.63
15884;BME280;8040;50.254;10.960;2023-03-16T09:09:33;98763.66;;;3.03;71.95
15884;BME280;8040;50.254;10.960;2023-03-16T09:11:59;98765.63;;;3.07;72.13
15884;BME280;8040;50.254;10.960;2023-03-16T09:14:25;98760.66;;;3.27;73.19
15884;BME280;8040;50.254;10.960;2023-03-16T09:16:50;98752.97;;;3.19;71.84
15884;BME280;8040;50.254;10.960;2023-03-16T09:19:16;98750.47;;;3.01;71.57
15884;BME280;8040;50.254;10.960;2023-03-16T09:21:42;98746.19;;;3.00;72.85
15884;BME280;8040;50.254;10.960;2023-03-16T09:24:07;98750.84;;;3.05;72.88
15884;BME280;8040;50.254;10.960;2023-03-16T09:26:33;98751.94;;;2.92;72.73
15884;BME280;8040;50.254;10.960;2023-03-16T09:28:59;98744.66;;;3.04;73.24
15884;BME280;8040;50.254;10.960;2023-03-16T09:31:24;98736.34;;;3.17;73.51
15884;BME280;8040;50.254;10.960;2023-03-16T09:33:50;98742.25;;;3.19;73.60
15884;BME280;8040;50.254;10.960;2023-03-16T09:36:16;98741.59;;;3.12;73.23
15884;BME280;8040;50.254;10.960;2023-03-16T09:38:42;98757.34;;;3.09;74.03
15884;BME280;8040;50.254;10.960;2023-03-16T09:41:16;98752.59;;;2.99;73.14
15884;BME280;8040;50.254;10.960;2023-03-16T09:43:47;98751.97;;;3.09;73.59
15884;BME280;8040;50.254;10.960;2023-03-16T09:48:41;98752.47;;;3.06;73.80
15884;BME280;8040;50.254;10.960;2023-03-16T09:51:07;98748.63;;;3.02;73.97
15884;BME280;8040;50.254;10.960;2023-03-16T09:53:37;98747.94;;;3.23;74.09
15884;BME280;8040;50.254;10.960;2023-03-16T09:56:10;98743.09;;;3.36;74.15
15884;BME280;8040;50.254;10.960;2023-03-16T09:58:37;98739.78;;;3.46;73.38
15884;BME280;8040;50.254;10.960;2023-03-16T10:06:00;98744.09;;;3.47;72.66
15884;BME280;8040;50.254;10.960;2023-03-16T10:08:32;98732.03;;;3.61;73.13
15884;BME280;8040;50.254;10.960;2023-03-16T10:11:21;98733.00;;;3.71;71.77
15884;BME280;8040;50.254;10.960;2023-03-16T10:16:36;98725.81;;;3.77;72.17
15884;BME280;8040;50.254;10.960;2023-03-16T10:19:07;98722.66;;;3.96;72.69
15884;BME280;8040;50.254;10.960;2023-03-16T10:21:37;98720.06;;;4.01;71.14
15884;BME280;8040;50.254;10.960;2023-03-16T10:24:03;98709.16;;;3.91;70.02
15884;BME280;8040;50.254;10.960;2023-03-16T10:26:36;98705.72;;;3.96;69.76
15884;BME280;8040;50.254;10.960;2023-03-16T10:29:11;98708.50;;;4.01;68.84
15884;BME280;8040;50.254;10.960;2023-03-16T10:31:37;98704.09;;;3.95;68.44
15884;BME280;8040;50.254;10.960;2023-03-16T10:34:05;98696.53;;;4.08;70.16
15884;BME280;8040;50.254;10.960;2023-03-16T10:36:32;98696.81;;;4.28;70.64
15884;BME280;8040;50.254;10.960;2023-03-16T10:38:59;98692.81;;;4.31;68.36
15884;BME280;8040;50.254;10.960;2023-03-16T10:41:27;98692.81;;;4.31;68.83
15884;BME280;8040;50.254;10.960;2023-03-16T10:43:57;98686.22;;;4.38;68.94
15884;BME280;8040;50.254;10.960;2023-03-16T10:46:24;98685.91;;;4.56;69.94
15884;BME280;8040;50.254;10.960;2023-03-16T10:48:52;98688.75;;;4.71;67.83
15884;BME280;8040;50.254;10.960;2023-03-16T10:51:19;98693.63;;;4.74;68.50
15884;BME280;8040;50.254;10.960;2023-03-16T10:53:49;98696.59;;;4.99;67.65
15884;BME280;8040;50.254;10.960;2023-03-16T10:56:19;98696.50;;;5.16;65.82
15884;BME280;8040;50.254;10.960;2023-03-16T10:58:44;98695.91;;;5.35;65.23
15884;BME280;8040;50.254;10.960;2023-03-16T11:01:17;98700.25;;;5.41;65.05
15884;BME280;8040;50.254;10.960;2023-03-16T11:03:46;98705.22;;;5.54;64.25
15884;BME280;8040;50.254;10.960;2023-03-16T11:06:31;98710.06;;;5.57;63.41
15884;BME280;8040;50.254;10.960;2023-03-16T11:09:39;98706.41;;;5.68;63.44
15884;BME280;8040;50.254;10.960;2023-03-16T11:11:46;98704.09;;;5.50;60.86
15884;BME280;8040;50.254;10.960;2023-03-16T11:14:13;98694.69;;;5.53;61.40
15884;BME280;8040;50.254;10.960;2023-03-16T11:16:46;98688.44;;;5.74;61.69
15884;BME280;8040;50.254;10.960;2023-03-16T11:22:16;98691.59;;;5.97;61.69
15884;BME280;8040;50.254;10.960;2023-03-16T11:27:34;98671.84;;;6.28;60.54
15884;BME280;8040;50.254;10.960;2023-03-16T11:32:35;98670.09;;;6.54;58.36
15884;BME280;8040;50.254;10.960;2023-03-16T11:35:01;98663.25;;;6.36;57.27
15884;BME280;8040;50.254;10.960;2023-03-16T11:37:49;98655.22;;;6.46;58.27
15884;BME280;8040;50.254;10.960;2023-03-16T11:43:04;98646.38;;;6.56;58.71
15884;BME280;8040;50.254;10.960;2023-03-16T11:45:43;98644.28;;;6.73;58.34
15884;BME280;8040;50.254;10.960;2023-03-16T11:53:27;98640.31;;;7.00;54.62
15884;BME280;8040;50.254;10.960;2023-03-16T11:56:01;98636.81;;;6.95;54.52
15884;BME280;8040;50.254;10.960;2023-03-16T12:01:16;98616.78;;;6.66;56.13
15884;BME280;8040;50.254;10.960;2023-03-16T12:06:55;98610.34;;;6.82;55.33
15884;BME280;8040;50.254;10.960;2023-03-16T12:12:04;98587.47;;;7.14;55.79
15884;BME280;8040;50.254;10.960;2023-03-16T12:14:42;98589.09;;;7.10;54.70
15884;BME280;8040;50.254;10.960;2023-03-16T12:19:44;98585.59;;;7.39;55.37
15884;BME280;8040;50.254;10.960;2023-03-16T12:22:22;98588.00;;;7.61;54.93
15884;BME280;8040;50.254;10.960;2023-03-16T12:24:52;98590.13;;;7.69;52.49
15884;BME280;8040;50.254;10.960;2023-03-16T12:27:21;98580.41;;;7.68;52.91
15884;BME280;8040;50.254;10.960;2023-03-16T12:29:55;98585.00;;;7.77;51.54
15884;BME280;8040;50.254;10.960;2023-03-16T12:37:42;98550.38;;;8.04;45.30
15884;BME280;8040;50.254;10.960;2023-03-16T12:40:24;98544.06;;;8.19;45.28
15884;BME280;8040;50.254;10.960;2023-03-16T12:45:37;98541.84;;;8.41;41.14
15884;BME280;8040;50.254;10.960;2023-03-16T12:48:10;98535.59;;;8.45;40.91
15884;BME280;8040;50.254;10.960;2023-03-16T12:50:48;98539.63;;;8.53;40.54
15884;BME280;8040;50.254;10.960;2023-03-16T12:55:55;98546.06;;;8.62;40.63
15884;BME280;8040;50.254;10.960;2023-03-16T12:58:22;98543.63;;;8.65;40.47
15884;BME280;8040;50.254;10.960;2023-03-16T13:00:54;98543.81;;;8.74;40.34
15884;BME280;8040;50.254;10.960;2023-03-16T13:03:20;98550.22;;;8.88;40.34
15884;BME280;8040;50.254;10.960;2023-03-16T13:05:57;98549.59;;;9.01;41.17
15884;BME280;8040;50.254;10.960;2023-03-16T13:08:23;98549.53;;;9.11;40.71
15884;BME280;8040;50.254;10.960;2023-03-16T13:11:06;98545.72;;;9.12;39.26
15884;BME280;8040;50.254;10.960;2023-03-16T13:13:33;98533.81;;;9.13;38.82
15884;BME280;8040;50.254;10.960;2023-03-16T13:16:01;98533.41;;;9.24;40.04
15884;BME280;8040;50.254;10.960;2023-03-16T13:18:38;98527.94;;;9.34;40.55
15884;BME280;8040;50.254;10.960;2023-03-16T13:21:16;98530.84;;;9.43;40.62
15884;BME280;8040;50.254;10.960;2023-03-16T13:23:58;98518.59;;;9.50;40.63
15884;BME280;8040;50.254;10.960;2023-03-16T13:28:58;98525.84;;;9.55;38.22
15884;BME280;8040;50.254;10.960;2023-03-16T13:31:26;98518.22;;;9.57;37.97
15884;BME280;8040;50.254;10.960;2023-03-16T13:33:53;98517.13;;;9.58;37.80
15884;BME280;8040;50.254;10.960;2023-03-16T13:36:22;98522.22;;;9.64;37.90
15884;BME280;8040;50.254;10.960;2023-03-16T13:39:06;98517.50;;;9.75;38.43
15884;BME280;8040;50.254;10.960;2023-03-16T13:41:37;98532.69;;;9.71;36.60
15884;BME280;8040;50.254;10.960;2023-03-16T13:44:03;98531.56;;;9.77;38.09
15884;BME280;8040;50.254;10.960;2023-03-16T13:46:28;98537.34;;;9.94;40.67
15884;BME280;8040;50.254;10.960;2023-03-16T13:48:56;98523.22;;;9.97;37.56
15884;BME280;8040;50.254;10.960;2023-03-16T13:51:23;98531.03;;;9.98;37.07
15884;BME280;8040;50.254;10.960;2023-03-16T13:53:49;98523.75;;;9.99;37.38
15884;BME280;8040;50.254;10.960;2023-03-16T13:56:15;98515.00;;;10.02;37.60
15884;BME280;8040;50.254;10.960;2023-03-16T13:58:43;98512.81;;;10.09;38.18
15884;BME280;8040;50.254;10.960;2023-03-16T14:01:11;98502.81;;;10.04;38.18
15884;BME280;8040;50.254;10.960;2023-03-16T14:03:38;98507.44;;;10.04;37.71
15884;BME280;8040;50.254;10.960;2023-03-16T14:06:16;98497.13;;;10.06;37.80
15884;BME280;8040;50.254;10.960;2023-03-16T14:08:45;98483.09;;;9.99;37.38
15884;BME280;8040;50.254;10.960;2023-03-16T14:11:13;98485.41;;;9.87;36.54
15884;BME280;8040;50.254;10.960;2023-03-16T14:13:39;98478.94;;;9.83;37.50